sensor_id;sensor_type;location;lat;lon;timestamp;temperature;humidity
51914;DHT22;37940;53.002;6.930;2022-11-15T00:00:50;7.40;99.90
51914;DHT22;37940;53.002;6.930;2022-11-15T00:03:17;7.30;99.90
51914;DHT22;37940;53.002;6.930;2022-11-15T00:05:43;7.20;99.90
51914;DHT22;37940;53.002;6.930;2022-11-15T00:08:10;7.10;99.90
51914;DHT22;37940;53.002;6.930;2022-11-15T00:10:36;7.00;99.90
51914;DHT22;37940;53.002;6.930;2022-11-15T00:13:10;7.00;99.90
51914;DHT22;37940;53.002;6.930;2022-11-15T00:15:37;7.00;99.90
51914;DHT22;37940;53.002;6.930;2022-11-15T00:18:04;7.30;99.90
51914;DHT22;37940;53.002;6.930;2022-11-15T00:20:30;7.10;99.90
51914;DHT22;37940;53.002;6.930;2022-11-15T00:22:56;7.90;99.90
51914;DHT22;37940;53.002;6.930;2022-11-15T00:25:21;7.10;99.90
51914;DHT22;37940;53.002;6.930;2022-11-15T00:27:47;7.40;99.90
51914;DHT22;37940;53.002;6.930;2022-11-15T00:30:13;7.30;99.90
51914;DHT22;37940;53.002;6.930;2022-11-15T00:32:39;7.00;99.90
51914;DHT22;37940;53.002;6.930;2022-11-15T00:35:05;6.90;99.90
51914;DHT22;37940;53.002;6.930;2022-11-15T00:37:30;6.90;99.90
51914;DHT22;37940;53.002;6.930;2022-11-15T00:39:56;6.90;99.90
51914;DHT22;37940;53.002;6.930;2022-11-15T00:42:22;6.80;99.90
51914;DHT22;37940;53.002;6.930;2022-11-15T00:44:47;6.80;99.90
51914;DHT22;37940;53.002;6.930;2022-11-15T00:47:13;7.60;99.90
51914;DHT22;37940;53.002;6.930;2022-11-15T00:49:39;6.90;99.90
51914;DHT22;37940;53.002;6.930;2022-11-15T00:52:06;6.90;99.90
51914;DHT22;37940;53.002;6.930;2022-11-15T00:54:32;7.40;99.90
51914;DHT22;37940;53.002;6.930;2022-11-15T00:56:57;7.00;99.90
51914;DHT22;37940;53.002;6.930;2022-11-15T00:59:23;7.00;99.90
51914;DHT22;37940;53.002;6.930;2022-11-15T01:01:49;7.10;99.90
51914;DHT22;37940;53.002;6.930;2022-11-15T01:04:14;7.30;99.90
51914;DHT22;37940;53.002;6.930;2022-11-15T01:06:40;7.20;99.90
51914;DHT22;37940;53.002;6.930;2022-11-15T01:09:06;7.20;99.90
51914;DHT22;37940;53.002;6.930;2022-11-15T01:11:31;7.40;99.90
51914;DHT22;37940;53.002;6.930;2022-11-15T01:13:57;7.20;99.90
51914;DHT22;37940;53.002;6.930;2022-11-15T01:16:23;7.20;99.90
51914;DHT22;37940;53.002;6.930;2022-11-15T01:18:48;7.30;99.90
51914;DHT22;37940;53.002;6.930;2022-11-15T01:21:17;7.30;99.90
51914;DHT22;37940;53.002;6.930;2022-11-15T01:23:43;7.30;99.90
51914;DHT22;37940;53.002;6.930;2022-11-15T01:26:12;7.30;99.90
51914;DHT22;37940;53.002;6.930;2022-11-15T01:28:39;7.80;99.90
51914;DHT22;37940;53.002;6.930;2022-11-15T01:31:11;7.40;99.90
51914;DHT22;37940;53.002;6.930;2022-11-15T01:33:37;7.80;99.90
51914;DHT22;37940;53.002;6.930;2022-11-15T01:36:04;7.40;99.90
51914;DHT22;37940;53.002;6.930;2022-11-15T01:38:30;7.40;99.90
51914;DHT22;37940;53.002;6.930;2022-11-15T01:40:56;7.60;99.90
51914;DHT22;37940;53.002;6.930;2022-11-15T01:43:28;8.20;99.90
51914;DHT22;37940;53.002;6.930;2022-11-15T01:46:01;7.90;99.90
51914;DHT22;37940;53.002;6.930;2022-11-15T01:48:30;7.50;99.90
51914;DHT22;37940;53.002;6.930;2022-11-15T01:50:58;7.50;99.90
51914;DHT22;37940;53.002;6.930;2022-11-15T01:53:25;7.50;99.90
51914;DHT22;37940;53.002;6.930;2022-11-15T01:55:52;7.50;99.90
51914;DHT22;37940;53.002;6.930;2022-11-15T01:58:18;7.50;99.90
51914;DHT22;37940;53.002;6.930;2022-11-15T02:00:44;7.50;99.90
51914;DHT22;37940;53.002;6.930;2022-11-15T02:03:10;7.50;99.90
51914;DHT22;37940;53.002;6.930;2022-11-15T02:05:36;7.50;99.90
51914;DHT22;37940;53.002;6.930;2022-11-15T02:08:03;7.50;99.90
51914;DHT22;37940;53.002;6.930;2022-11-15T02:10:29;7.50;99.90
51914;DHT22;37940;53.002;6.930;2022-11-15T02:12:55;7.50;99.90
51914;DHT22;37940;53.002;6.930;2022-11-15T02:15:24;7.50;99.90
51914;DHT22;37940;53.002;6.930;2022-11-15T02:25:54;7.60;99.90
51914;DHT22;37940;53.002;6.930;2022-11-15T02:31:11;7.60;99.90
51914;DHT22;37940;53.002;6.930;2022-11-15T02:33:50;7.70;99.90
51914;DHT22;37940;53.002;6.930;2022-11-15T02:39:15;7.60;99.90
51914;DHT22;37940;53.002;6.930;2022-11-15T02:44:24;7.60;99.90
51914;DHT22;37940;53.002;6.930;2022-11-15T02:46:56;7.70;99.90
51914;DHT22;37940;53.002;6.930;2022-11-15T02:49:54;7.70;99.90
51914;DHT22;37940;53.002;6.930;2022-11-15T02:52:23;8.00;99.90
51914;DHT22;37940;53.002;6.930;2022-11-15T02:55:01;8.00;99.90
51914;DHT22;37940;53.002;6.930;2022-11-15T03:00:27;8.20;99.90
51914;DHT22;37940;53.002;6.930;2022-11-15T03:05:53;7.70;99.90
51914;DHT22;37940;53.002;6.930;2022-11-15T03:11:27;7.70;99.90
51914;DHT22;37940;53.002;6.930;2022-11-15T03:19:45;7.70;99.90
51914;DHT22;37940;53.002;6.930;2022-11-15T03:22:15;7.80;99.90
51914;DHT22;37940;53.002;6.930;2022-11-15T03:24:43;8.00;99.90
51914;DHT22;37940;53.002;6.930;2022-11-15T03:27:14;8.00;99.90
51914;DHT22;37940;53.002;6.930;2022-11-15T03:29:46;7.80;99.90
51914;DHT22;37940;53.002;6.930;2022-11-15T03:32:21;7.80;99.90
51914;DHT22;37940;53.002;6.930;2022-11-15T03:35:02;7.80;99.90
51914;DHT22;37940;53.002;6.930;2022-11-15T03:40:15;7.80;99.90
51914;DHT22;37940;53.002;6.930;2022-11-15T03:43:00;7.80;99.90
51914;DHT22;37940;53.002;6.930;2022-11-15T03:45:32;7.80;99.90
51914;DHT22;37940;53.002;6.930;2022-11-15T03:48:03;7.80;99.90
51914;DHT22;37940;53.002;6.930;2022-11-15T03:50:31;7.80;99.90
51914;DHT22;37940;53.002;6.930;2022-11-15T03:52:57;7.80;99.90
51914;DHT22;37940;53.002;6.930;2022-11-15T03:55:24;8.00;99.90
51914;DHT22;37940;53.002;6.930;2022-11-15T03:57:53;8.00;99.90
51914;DHT22;37940;53.002;6.930;2022-11-15T04:00:19;7.90;99.90
51914;DHT22;37940;53.002;6.930;2022-11-15T04:02:44;7.90;99.90
51914;DHT22;37940;53.002;6.930;2022-11-15T04:05:10;8.10;99.90
51914;DHT22;37940;53.002;6.930;2022-11-15T04:07:36;7.90;99.90
51914;DHT22;37940;53.002;6.930;2022-11-15T04:10:02;7.90;99.90
51914;DHT22;37940;53.002;6.930;2022-11-15T04:12:33;7.90;99.90
51914;DHT22;37940;53.002;6.930;2022-11-15T04:15:08;7.90;99.90
51914;DHT22;37940;53.002;6.930;2022-11-15T04:17:35;7.90;99.90
51914;DHT22;37940;53.002;6.930;2022-11-15T04:20:05;7.90;99.90
51914;DHT22;37940;53.002;6.930;2022-11-15T04:22:52;8.00;99.90
51914;DHT22;37940;53.002;6.930;2022-11-15T04:25:36;7.90;99.90
51914;DHT22;37940;53.002;6.930;2022-11-15T04:28:02;8.00;99.90
51914;DHT22;37940;53.002;6.930;2022-11-15T04:30:28;8.00;99.90
51914;DHT22;37940;53.002;6.930;2022-11-15T04:32:53;8.00;99.90
51914;DHT22;37940;53.002;6.930;2022-11-15T04:35:19;8.10;99.90
51914;DHT22;37940;53.002;6.930;2022-11-15T04:37:45;8.00;99.90
51914;DHT22;37940;53.002;6.930;2022-11-15T04:40:11;8.20;99.90
51914;DHT22;37940;53.002;6.930;2022-11-15T04:42:37;8.00;99.90
51914;DHT22;37940;53.002;6.930;2022-11-15T04:45:02;8.70;99.90
51914;DHT22;37940;53.002;6.930;2022-11-15T04:47:28;8.10;99.90
51914;DHT22;37940;53.002;6.930;2022-11-15T04:49:54;8.10;99.90
51914;DHT22;37940;53.002;6.930;2022-11-15T04:52:20;8.20;99.90
51914;DHT22;37940;53.002;6.930;2022-11-15T04:54:46;8.10;99.90
51914;DHT22;37940;53.002;6.930;2022-11-15T04:57:12;8.10;99.90
51914;DHT22;37940;53.002;6.930;2022-11-15T04:59:37;8.50;99.90
51914;DHT22;37940;53.002;6.930;2022-11-15T05:02:03;8.20;99.90
51914;DHT22;37940;53.002;6.930;2022-11-15T05:04:28;8.20;99.90
51914;DHT22;37940;53.002;6.930;2022-11-15T05:06:54;8.40;99.90
51914;DHT22;37940;53.002;6.930;2022-11-15T05:09:20;8.30;99.90
51914;DHT22;37940;53.002;6.930;2022-11-15T05:11:47;8.30;99.90
51914;DHT22;37940;53.002;6.930;2022-11-15T05:14:13;8.40;99.90
51914;DHT22;37940;53.002;6.930;2022-11-15T05:16:39;8.30;99.90
51914;DHT22;37940;53.002;6.930;2022-11-15T05:19:05;8.40;99.90
51914;DHT22;37940;53.002;6.930;2022-11-15T05:21:32;8.50;99.90
51914;DHT22;37940;53.002;6.930;2022-11-15T05:23:58;8.50;99.90
51914;DHT22;37940;53.002;6.930;2022-11-15T05:26:24;8.50;99.90
51914;DHT22;37940;53.002;6.930;2022-11-15T05:28:54;8.70;99.90
51914;DHT22;37940;53.002;6.930;2022-11-15T05:31:21;8.60;99.90
51914;DHT22;37940;53.002;6.930;2022-11-15T05:33:47;8.60;99.90
51914;DHT22;37940;53.002;6.930;2022-11-15T05:36:22;8.70;99.90
51914;DHT22;37940;53.002;6.930;2022-11-15T05:38:51;8.90;99.90
51914;DHT22;37940;53.002;6.930;2022-11-15T05:41:20;9.30;99.90
51914;DHT22;37940;53.002;6.930;2022-11-15T05:43:49;8.80;99.90
51914;DHT22;37940;53.002;6.930;2022-11-15T05:46:15;9.30;99.90
51914;DHT22;37940;53.002;6.930;2022-11-15T05:48:45;8.80;99.90
51914;DHT22;37940;53.002;6.930;2022-11-15T05:51:14;8.90;99.90
51914;DHT22;37940;53.002;6.930;2022-11-15T05:53:41;8.90;99.90
51914;DHT22;37940;53.002;6.930;2022-11-15T05:56:08;9.10;99.90
51914;DHT22;37940;53.002;6.930;2022-11-15T05:58:34;9.10;99.90
51914;DHT22;37940;53.002;6.930;2022-11-15T06:01:01;9.00;99.90
51914;DHT22;37940;53.002;6.930;2022-11-15T06:03:26;9.10;99.90
51914;DHT22;37940;53.002;6.930;2022-11-15T06:05:52;9.10;99.90
51914;DHT22;37940;53.002;6.930;2022-11-15T06:08:18;9.00;99.90
51914;DHT22;37940;53.002;6.930;2022-11-15T06:10:43;9.10;99.90
51914;DHT22;37940;53.002;6.930;2022-11-15T06:13:09;9.20;99.90
51914;DHT22;37940;53.002;6.930;2022-11-15T06:15:35;9.20;99.90
51914;DHT22;37940;53.002;6.930;2022-11-15T06:18:01;9.20;99.90
51914;DHT22;37940;53.002;6.930;2022-11-15T06:20:28;9.30;99.90
51914;DHT22;37940;53.002;6.930;2022-11-15T06:23:02;9.30;99.90
51914;DHT22;37940;53.002;6.930;2022-11-15T06:25:28;9.40;99.90
51914;DHT22;37940;53.002;6.930;2022-11-15T06:27:55;9.40;99.90
51914;DHT22;37940;53.002;6.930;2022-11-15T06:30:22;9.60;99.90
51914;DHT22;37940;53.002;6.930;2022-11-15T06:32:48;9.50;99.90
51914;DHT22;37940;53.002;6.930;2022-11-15T06:35:14;9.50;99.90
51914;DHT22;37940;53.002;6.930;2022-11-15T06:37:40;9.50;99.90
51914;DHT22;37940;53.002;6.930;2022-11-15T06:40:08;9.60;99.90
51914;DHT22;37940;53.002;6.930;2022-11-15T06:42:34;9.60;99.90
51914;DHT22;37940;53.002;6.930;2022-11-15T06:45:00;9.60;99.90
51914;DHT22;37940;53.002;6.930;2022-11-15T06:47:26;9.60;99.90
51914;DHT22;37940;53.002;6.930;2022-11-15T06:49:52;9.70;99.90
51914;DHT22;37940;53.002;6.930;2022-11-15T06:52:17;9.70;99.90
51914;DHT22;37940;53.002;6.930;2022-11-15T06:54:45;9.70;99.90
51914;DHT22;37940;53.002;6.930;2022-11-15T06:57:11;9.70;99.90
51914;DHT22;37940;53.002;6.930;2022-11-15T06:59:37;9.70;99.90
51914;DHT22;37940;53.002;6.930;2022-11-15T07:02:03;9.80;99.90
51914;DHT22;37940;53.002;6.930;2022-11-15T07:04:29;9.80;99.90
51914;DHT22;37940;53.002;6.930;2022-11-15T07:06:54;9.80;99.90
51914;DHT22;37940;53.002;6.930;2022-11-15T07:09:20;9.90;99.90
51914;DHT22;37940;53.002;6.930;2022-11-15T07:11:46;9.80;99.90
51914;DHT22;37940;53.002;6.930;2022-11-15T07:14:12;10.10;99.90
51914;DHT22;37940;53.002;6.930;2022-11-15T07:16:38;9.90;99.90
51914;DHT22;37940;53.002;6.930;2022-11-15T07:19:03;9.90;99.90
51914;DHT22;37940;53.002;6.930;2022-11-15T07:21:29;10.30;99.90
51914;DHT22;37940;53.002;6.930;2022-11-15T07:23:55;10.00;99.90
51914;DHT22;37940;53.002;6.930;2022-11-15T07:26:21;9.90;99.90
51914;DHT22;37940;53.002;6.930;2022-11-15T07:28:46;10.00;99.90
51914;DHT22;37940;53.002;6.930;2022-11-15T07:31:12;10.00;99.90
51914;DHT22;37940;53.002;6.930;2022-11-15T07:33:38;10.00;99.90
51914;DHT22;37940;53.002;6.930;2022-11-15T07:36:05;10.00;99.90
51914;DHT22;37940;53.002;6.930;2022-11-15T07:38:32;10.10;99.90
51914;DHT22;37940;53.002;6.930;2022-11-15T07:41:00;10.10;99.90
51914;DHT22;37940;53.002;6.930;2022-11-15T07:43:27;10.30;99.90
51914;DHT22;37940;53.002;6.930;2022-11-15T07:45:58;10.10;99.90
51914;DHT22;37940;53.002;6.930;2022-11-15T07:48:23;10.10;99.90
51914;DHT22;37940;53.002;6.930;2022-11-15T07:50:49;10.20;99.90
51914;DHT22;37940;53.002;6.930;2022-11-15T07:53:15;10.20;99.90
51914;DHT22;37940;53.002;6.930;2022-11-15T07:55:41;10.20;99.90
51914;DHT22;37940;53.002;6.930;2022-11-15T07:58:10;10.20;99.90
51914;DHT22;37940;53.002;6.930;2022-11-15T08:00:37;10.20;99.90
51914;DHT22;37940;53.002;6.930;2022-11-15T08:03:12;10.40;99.90
51914;DHT22;37940;53.002;6.930;2022-11-15T08:05:39;10.30;99.90
51914;DHT22;37940;53.002;6.930;2022-11-15T08:08:06;10.80;99.90
51914;DHT22;37940;53.002;6.930;2022-11-15T08:10:33;10.40;99.90
51914;DHT22;37940;53.002;6.930;2022-11-15T08:13:00;10.50;99.90
51914;DHT22;37940;53.002;6.930;2022-11-15T08:15:26;10.50;99.90
51914;DHT22;37940;53.002;6.930;2022-11-15T08:18:00;10.90;99.90
51914;DHT22;37940;53.002;6.930;2022-11-15T08:20:27;10.70;99.90
51914;DHT22;37940;53.002;6.930;2022-11-15T08:23:00;10.70;99.90
51914;DHT22;37940;53.002;6.930;2022-11-15T08:25:27;10.80;99.90
51914;DHT22;37940;53.002;6.930;2022-11-15T08:27:59;10.80;99.90
51914;DHT22;37940;53.002;6.930;2022-11-15T08:30:26;10.80;99.90
51914;DHT22;37940;53.002;6.930;2022-11-15T08:32:53;10.90;99.90
51914;DHT22;37940;53.002;6.930;2022-11-15T08:35:20;10.90;99.90
51914;DHT22;37940;53.002;6.930;2022-11-15T08:37:46;11.00;99.90
51914;DHT22;37940;53.002;6.930;2022-11-15T08:40:12;11.00;99.90
51914;DHT22;37940;53.002;6.930;2022-11-15T08:42:39;11.10;99.90
51914;DHT22;37940;53.002;6.930;2022-11-15T08:45:06;11.10;99.90
51914;DHT22;37940;53.002;6.930;2022-11-15T08:47:32;11.20;99.90
51914;DHT22;37940;53.002;6.930;2022-11-15T08:49:58;11.30;99.90
51914;DHT22;37940;53.002;6.930;2022-11-15T08:52:24;11.30;99.90
51914;DHT22;37940;53.002;6.930;2022-11-15T08:54:49;11.30;99.90
51914;DHT22;37940;53.002;6.930;2022-11-15T08:57:15;11.30;99.90
51914;DHT22;37940;53.002;6.930;2022-11-15T08:59:41;11.40;99.90
51914;DHT22;37940;53.002;6.930;2022-11-15T09:02:12;11.40;99.90
51914;DHT22;37940;53.002;6.930;2022-11-15T09:04:43;11.50;99.90
51914;DHT22;37940;53.002;6.930;2022-11-15T09:07:10;11.50;99.90
51914;DHT22;37940;53.002;6.930;2022-11-15T09:09:36;11.50;99.90
51914;DHT22;37940;53.002;6.930;2022-11-15T09:12:03;11.80;99.90
51914;DHT22;37940;53.002;6.930;2022-11-15T09:14:29;11.40;99.90
51914;DHT22;37940;53.002;6.930;2022-11-15T09:16:54;11.40;99.90
51914;DHT22;37940;53.002;6.930;2022-11-15T09:19:21;11.70;99.90
51914;DHT22;37940;53.002;6.930;2022-11-15T09:21:47;11.40;99.90
51914;DHT22;37940;53.002;6.930;2022-11-15T09:24:12;11.50;99.90
51914;DHT22;37940;53.002;6.930;2022-11-15T09:26:39;11.50;99.90
51914;DHT22;37940;53.002;6.930;2022-11-15T09:29:04;11.60;99.90
51914;DHT22;37940;53.002;6.930;2022-11-15T09:31:30;11.40;99.90
51914;DHT22;37940;53.002;6.930;2022-11-15T09:33:56;11.50;99.90
51914;DHT22;37940;53.002;6.930;2022-11-15T09:36:21;11.40;99.90
51914;DHT22;37940;53.002;6.930;2022-11-15T09:38:47;11.50;99.90
51914;DHT22;37940;53.002;6.930;2022-11-15T09:47:00;11.50;99.90
51914;DHT22;37940;53.002;6.930;2022-11-15T09:49:29;11.60;99.90
51914;DHT22;37940;53.002;6.930;2022-11-15T09:51:56;11.60;99.90
51914;DHT22;37940;53.002;6.930;2022-11-15T09:56:57;11.60;99.90
51914;DHT22;37940;53.002;6.930;2022-11-15T09:59:39;11.60;99.90
51914;DHT22;37940;53.002;6.930;2022-11-15T10:02:31;11.60;99.90
51914;DHT22;37940;53.002;6.930;2022-11-15T10:04:59;11.60;99.90
51914;DHT22;37940;53.002;6.930;2022-11-15T10:07:40;11.70;99.90
51914;DHT22;37940;53.002;6.930;2022-11-15T10:10:28;11.80;99.90
51914;DHT22;37940;53.002;6.930;2022-11-15T10:12:55;11.70;99.90
51914;DHT22;37940;53.002;6.930;2022-11-15T10:15:21;11.70;99.90
51914;DHT22;37940;53.002;6.930;2022-11-15T10:20:29;11.70;99.90
51914;DHT22;37940;53.002;6.930;2022-11-15T10:23:00;11.70;99.90
51914;DHT22;37940;53.002;6.930;2022-11-15T10:25:35;11.70;99.90
51914;DHT22;37940;53.002;6.930;2022-11-15T10:28:14;11.70;99.90
51914;DHT22;37940;53.002;6.930;2022-11-15T10:30:44;11.60;99.90
51914;DHT22;37940;53.002;6.930;2022-11-15T10:33:25;11.60;99.90
51914;DHT22;37940;53.002;6.930;2022-11-15T10:36:20;11.60;99.90
51914;DHT22;37940;53.002;6.930;2022-11-15T10:46:33;11.60;99.90
51914;DHT22;37940;53.002;6.930;2022-11-15T10:49:13;11.60;99.90
51914;DHT22;37940;53.002;6.930;2022-11-15T10:51:46;11.60;99.90
51914;DHT22;37940;53.002;6.930;2022-11-15T10:54:14;11.70;99.90
51914;DHT22;37940;53.002;6.930;2022-11-15T10:56:50;11.70;99.90
51914;DHT22;37940;53.002;6.930;2022-11-15T10:59:28;11.70;99.90
51914;DHT22;37940;53.002;6.930;2022-11-15T11:01:57;11.70;99.90
51914;DHT22;37940;53.002;6.930;2022-11-15T11:04:27;11.70;99.90
51914;DHT22;37940;53.002;6.930;2022-11-15T11:07:00;11.70;99.90
51914;DHT22;37940;53.002;6.930;2022-11-15T11:09:42;11.70;99.90
51914;DHT22;37940;53.002;6.930;2022-11-15T11:12:11;11.80;99.90
51914;DHT22;37940;53.002;6.930;2022-11-15T11:14:38;11.80;99.90
51914;DHT22;37940;53.002;6.930;2022-11-15T11:17:21;11.80;99.90
51914;DHT22;37940;53.002;6.930;2022-11-15T11:23:05;12.00;99.90
51914;DHT22;37940;53.002;6.930;2022-11-15T11:28:38;12.10;99.90
51914;DHT22;37940;53.002;6.930;2022-11-15T11:37:09;12.30;99.90
51914;DHT22;37940;53.002;6.930;2022-11-15T11:45:47;12.50;99.90
51914;DHT22;37940;53.002;6.930;2022-11-15T11:54:26;12.60;99.90
51914;DHT22;37940;53.002;6.930;2022-11-15T11:57:01;12.70;99.90
51914;DHT22;37940;53.002;6.930;2022-11-15T11:59:42;12.70;99.90
51914;DHT22;37940;53.002;6.930;2022-11-15T12:02:24;12.80;99.90
51914;DHT22;37940;53.002;6.930;2022-11-15T12:05:04;12.80;99.90
51914;DHT22;37940;53.002;6.930;2022-11-15T12:07:34;12.80;99.90
51914;DHT22;37940;53.002;6.930;2022-11-15T12:10:19;13.00;99.90
51914;DHT22;37940;53.002;6.930;2022-11-15T12:15:27;12.70;99.90
51914;DHT22;37940;53.002;6.930;2022-11-15T12:17:56;13.20;99.90
51914;DHT22;37940;53.002;6.930;2022-11-15T12:20:36;12.70;99.90
51914;DHT22;37940;53.002;6.930;2022-11-15T12:23:24;12.70;99.90
51914;DHT22;37940;53.002;6.930;2022-11-15T12:25:59;12.60;99.90
51914;DHT22;37940;53.002;6.930;2022-11-15T12:28:57;12.60;99.90
51914;DHT22;37940;53.002;6.930;2022-11-15T12:31:45;12.50;99.90
51914;DHT22;37940;53.002;6.930;2022-11-15T12:36:47;12.60;99.90
51914;DHT22;37940;53.002;6.930;2022-11-15T12:39:16;12.40;99.90
51914;DHT22;37940;53.002;6.930;2022-11-15T12:47:26;12.30;99.90
51914;DHT22;37940;53.002;6.930;2022-11-15T12:49:52;12.30;99.90
51914;DHT22;37940;53.002;6.930;2022-11-15T12:52:18;12.20;99.90
51914;DHT22;37940;53.002;6.930;2022-11-15T12:54:53;12.20;99.90
51914;DHT22;37940;53.002;6.930;2022-11-15T13:02:26;12.00;99.90
51914;DHT22;37940;53.002;6.930;2022-11-15T13:17:52;12.60;99.90
51914;DHT22;37940;53.002;6.930;2022-11-15T13:20:31;12.60;99.90
51914;DHT22;37940;53.002;6.930;2022-11-15T13:23:23;12.70;99.90
51914;DHT22;37940;53.002;6.930;2022-11-15T13:28:56;12.60;99.90
51914;DHT22;37940;53.002;6.930;2022-11-15T13:31:37;12.60;99.90
51914;DHT22;37940;53.002;6.930;2022-11-15T13:34:29;12.60;99.90
51914;DHT22;37940;53.002;6.930;2022-11-15T13:36:58;12.50;99.90
51914;DHT22;37940;53.002;6.930;2022-11-15T13:39:30;12.40;99.90
51914;DHT22;37940;53.002;6.930;2022-11-15T13:41:56;12.40;99.90
51914;DHT22;37940;53.002;6.930;2022-11-15T13:44:32;12.40;99.90
51914;DHT22;37940;53.002;6.930;2022-11-15T13:47:14;12.30;99.90
51914;DHT22;37940;53.002;6.930;2022-11-15T13:49:41;12.30;99.90
51914;DHT22;37940;53.002;6.930;2022-11-15T13:52:11;12.20;99.90
51914;DHT22;37940;53.002;6.930;2022-11-15T13:59:57;12.10;99.90
51914;DHT22;37940;53.002;6.930;2022-11-15T14:02:27;12.10;99.90
51914;DHT22;37940;53.002;6.930;2022-11-15T14:05:22;12.00;99.90
51914;DHT22;37940;53.002;6.930;2022-11-15T14:10:35;12.00;99.90
51914;DHT22;37940;53.002;6.930;2022-11-15T14:13:03;11.90;99.90
51914;DHT22;37940;53.002;6.930;2022-11-15T14:15:34;11.90;99.90
51914;DHT22;37940;53.002;6.930;2022-11-15T14:18:01;11.90;99.90
51914;DHT22;37940;53.002;6.930;2022-11-15T14:20:33;11.90;99.90
51914;DHT22;37940;53.002;6.930;2022-11-15T14:23:02;11.80;99.90
51914;DHT22;37940;53.002;6.930;2022-11-15T14:25:32;11.80;99.90
51914;DHT22;37940;53.002;6.930;2022-11-15T14:28:28;11.70;99.90
51914;DHT22;37940;53.002;6.930;2022-11-15T14:30:57;11.70;99.90
51914;DHT22;37940;53.002;6.930;2022-11-15T14:33:34;11.60;99.90
51914;DHT22;37940;53.002;6.930;2022-11-15T14:36:20;11.60;99.90
51914;DHT22;37940;53.002;6.930;2022-11-15T14:38:47;11.50;99.90
51914;DHT22;37940;53.002;6.930;2022-11-15T14:41:22;11.50;99.90
51914;DHT22;37940;53.002;6.930;2022-11-15T14:43:49;11.50;99.90
51914;DHT22;37940;53.002;6.930;2022-11-15T14:46:15;11.40;99.90
51914;DHT22;37940;53.002;6.930;2022-11-15T14:48:41;11.40;99.90
51914;DHT22;37940;53.002;6.930;2022-11-15T14:51:14;11.30;99.90
51914;DHT22;37940;53.002;6.930;2022-11-15T14:53:41;11.30;99.90
51914;DHT22;37940;53.002;6.930;2022-11-15T14:56:08;11.20;99.90
51914;DHT22;37940;53.002;6.930;2022-11-15T14:58:34;11.20;99.90
51914;DHT22;37940;53.002;6.930;2022-11-15T15:01:03;11.10;99.90
51914;DHT22;37940;53.002;6.930;2022-11-15T15:03:35;11.00;99.90
51914;DHT22;37940;53.002;6.930;2022-11-15T15:06:00;10.90;99.90
51914;DHT22;37940;53.002;6.930;2022-11-15T15:08:26;10.40;99.90
51914;DHT22;37940;53.002;6.930;2022-11-15T15:10:52;10.80;99.90
51914;DHT22;37940;53.002;6.930;2022-11-15T15:13:22;10.70;99.90
51914;DHT22;37940;53.002;6.930;2022-11-15T15:15:49;10.70;99.90
51914;DHT22;37940;53.002;6.930;2022-11-15T15:18:16;10.60;99.90
51914;DHT22;37940;53.002;6.930;2022-11-15T15:20:44;10.50;99.90
51914;DHT22;37940;53.002;6.930;2022-11-15T15:23:19;10.50;99.90
51914;DHT22;37940;53.002;6.930;2022-11-15T15:25:46;10.40;99.90
51914;DHT22;37940;53.002;6.930;2022-11-15T15:28:13;10.40;99.90
51914;DHT22;37940;53.002;6.930;2022-11-15T15:30:39;10.30;99.90
51914;DHT22;37940;53.002;6.930;2022-11-15T15:33:04;10.30;99.90
51914;DHT22;37940;53.002;6.930;2022-11-15T15:35:33;10.60;99.90
51914;DHT22;37940;53.002;6.930;2022-11-15T15:37:59;10.30;99.90
51914;DHT22;37940;53.002;6.930;2022-11-15T15:40:27;10.20;99.90
51914;DHT22;37940;53.002;6.930;2022-11-15T15:42:52;10.10;99.90
51914;DHT22;37940;53.002;6.930;2022-11-15T15:45:19;10.10;99.90
51914;DHT22;37940;53.002;6.930;2022-11-15T15:47:45;10.10;99.90
51914;DHT22;37940;53.002;6.930;2022-11-15T15:52:46;10.10;99.90
51914;DHT22;37940;53.002;6.930;2022-11-15T15:55:12;10.10;99.90
51914;DHT22;37940;53.002;6.930;2022-11-15T15:57:38;10.10;99.90
51914;DHT22;37940;53.002;6.930;2022-11-15T16:00:05;10.10;99.90
51914;DHT22;37940;53.002;6.930;2022-11-15T16:02:31;10.10;99.90
51914;DHT22;37940;53.002;6.930;2022-11-15T16:04:57;10.10;99.90
51914;DHT22;37940;53.002;6.930;2022-11-15T16:07:23;10.10;99.90
51914;DHT22;37940;53.002;6.930;2022-11-15T16:09:54;10.00;99.90
51914;DHT22;37940;53.002;6.930;2022-11-15T16:12:27;10.10;99.90
51914;DHT22;37940;53.002;6.930;2022-11-15T16:14:52;10.00;99.90
51914;DHT22;37940;53.002;6.930;2022-11-15T16:17:20;10.00;99.90
51914;DHT22;37940;53.002;6.930;2022-11-15T16:19:47;10.00;99.90
51914;DHT22;37940;53.002;6.930;2022-11-15T16:22:12;9.90;99.90
51914;DHT22;37940;53.002;6.930;2022-11-15T16:24:38;9.90;99.90
51914;DHT22;37940;53.002;6.930;2022-11-15T16:27:04;9.90;99.90
51914;DHT22;37940;53.002;6.930;2022-11-15T16:29:29;9.90;99.90
51914;DHT22;37940;53.002;6.930;2022-11-15T16:31:55;9.80;99.90
51914;DHT22;37940;53.002;6.930;2022-11-15T16:34:22;9.90;99.90
51914;DHT22;37940;53.002;6.930;2022-11-15T16:36:47;9.80;99.90
51914;DHT22;37940;53.002;6.930;2022-11-15T16:39:14;9.80;99.90
51914;DHT22;37940;53.002;6.930;2022-11-15T16:41:42;9.80;99.90
51914;DHT22;37940;53.002;6.930;2022-11-15T16:44:15;9.90;99.90
51914;DHT22;37940;53.002;6.930;2022-11-15T16:46:41;9.90;99.90
51914;DHT22;37940;53.002;6.930;2022-11-15T16:49:14;9.90;99.90
51914;DHT22;37940;53.002;6.930;2022-11-15T16:51:45;9.80;99.90
51914;DHT22;37940;53.002;6.930;2022-11-15T16:54:12;9.90;99.90
51914;DHT22;37940;53.002;6.930;2022-11-15T16:56:38;9.90;99.90
51914;DHT22;37940;53.002;6.930;2022-11-15T16:59:04;9.90;99.90
51914;DHT22;37940;53.002;6.930;2022-11-15T17:01:35;9.90;99.90
51914;DHT22;37940;53.002;6.930;2022-11-15T17:04:02;9.90;99.90
51914;DHT22;37940;53.002;6.930;2022-11-15T17:06:41;9.90;99.90
51914;DHT22;37940;53.002;6.930;2022-11-15T17:09:19;9.80;99.90
51914;DHT22;37940;53.002;6.930;2022-11-15T17:11:45;9.90;99.90
51914;DHT22;37940;53.002;6.930;2022-11-15T17:14:11;10.00;99.90
51914;DHT22;37940;53.002;6.930;2022-11-15T17:16:37;9.80;99.90
51914;DHT22;37940;53.002;6.930;2022-11-15T17:19:14;9.80;99.90
51914;DHT22;37940;53.002;6.930;2022-11-15T17:21:40;9.70;99.90
51914;DHT22;37940;53.002;6.930;2022-11-15T17:24:06;9.90;99.90
51914;DHT22;37940;53.002;6.930;2022-11-15T17:26:32;9.80;99.90
51914;DHT22;37940;53.002;6.930;2022-11-15T17:28:58;9.80;99.90
51914;DHT22;37940;53.002;6.930;2022-11-15T17:31:25;9.80;99.90
51914;DHT22;37940;53.002;6.930;2022-11-15T17:33:51;9.90;99.90
51914;DHT22;37940;53.002;6.930;2022-11-15T17:36:17;9.90;99.90
51914;DHT22;37940;53.002;6.930;2022-11-15T17:38:43;9.90;99.90
51914;DHT22;37940;53.002;6.930;2022-11-15T17:41:12;10.10;99.90
51914;DHT22;37940;53.002;6.930;2022-11-15T17:43:39;10.10;99.90
51914;DHT22;37940;53.002;6.930;2022-11-15T17:46:12;10.00;99.90
51914;DHT22;37940;53.002;6.930;2022-11-15T17:48:38;10.00;99.90